sensor_id;sensor_type;location;lat;lon;timestamp;temperature;humidity
53254;DHT22;39148;53.332;6.922;2022-10-10T00:01:18;12.90;88.90
53254;DHT22;39148;53.332;6.922;2022-10-10T00:03:44;12.80;88.90
53254;DHT22;39148;53.332;6.922;2022-10-10T00:06:10;12.90;88.90
53254;DHT22;39148;53.332;6.922;2022-10-10T00:08:36;12.90;89.10
53254;DHT22;39148;53.332;6.922;2022-10-10T00:11:03;12.90;89.00
53254;DHT22;39148;53.332;6.922;2022-10-10T00:13:29;12.90;87.70
53254;DHT22;39148;53.332;6.922;2022-10-10T00:15:55;12.90;88.90
53254;DHT22;39148;53.332;6.922;2022-10-10T00:18:21;12.80;87.60
53254;DHT22;39148;53.332;6.922;2022-10-10T00:20:48;12.80;88.90
53254;DHT22;39148;53.332;6.922;2022-10-10T00:23:14;12.70;88.90
53254;DHT22;39148;53.332;6.922;2022-10-10T00:28:06;12.80;86.20
53254;DHT22;39148;53.332;6.922;2022-10-10T00:30:31;12.90;89.00
53254;DHT22;39148;53.332;6.922;2022-10-10T00:32:58;12.70;88.90
53254;DHT22;39148;53.332;6.922;2022-10-10T00:35:24;12.70;87.80
53254;DHT22;39148;53.332;6.922;2022-10-10T00:37:50;12.70;87.60
53254;DHT22;39148;53.332;6.922;2022-10-10T00:40:16;12.90;87.70
53254;DHT22;39148;53.332;6.922;2022-10-10T00:42:41;12.80;89.00
53254;DHT22;39148;53.332;6.922;2022-10-10T00:45:31;12.80;87.70
53254;DHT22;39148;53.332;6.922;2022-10-10T00:48:07;12.80;88.20
53254;DHT22;39148;53.332;6.922;2022-10-10T00:50:39;12.60;88.90
53254;DHT22;39148;53.332;6.922;2022-10-10T00:53:07;12.70;89.00
53254;DHT22;39148;53.332;6.922;2022-10-10T00:55:35;12.70;88.90
53254;DHT22;39148;53.332;6.922;2022-10-10T00:58:03;12.60;88.90
53254;DHT22;39148;53.332;6.922;2022-10-10T01:00:29;12.70;89.00
53254;DHT22;39148;53.332;6.922;2022-10-10T01:02:55;14.10;88.40
53254;DHT22;39148;53.332;6.922;2022-10-10T01:05:21;12.60;88.90
53254;DHT22;39148;53.332;6.922;2022-10-10T01:10:15;12.80;89.20
53254;DHT22;39148;53.332;6.922;2022-10-10T01:15:55;12.50;88.90
53254;DHT22;39148;53.332;6.922;2022-10-10T01:21:17;12.60;87.80
53254;DHT22;39148;53.332;6.922;2022-10-10T01:24:16;12.60;87.00
53254;DHT22;39148;53.332;6.922;2022-10-10T01:29:56;12.60;87.00
53254;DHT22;39148;53.332;6.922;2022-10-10T01:35:23;12.60;87.90
53254;DHT22;39148;53.332;6.922;2022-10-10T01:37:52;12.50;87.00
53254;DHT22;39148;53.332;6.922;2022-10-10T01:40:34;12.40;89.00
53254;DHT22;39148;53.332;6.922;2022-10-10T01:43:02;12.50;88.90
53254;DHT22;39148;53.332;6.922;2022-10-10T01:45:30;12.40;87.30
53254;DHT22;39148;53.332;6.922;2022-10-10T01:48:00;12.40;88.90
53254;DHT22;39148;53.332;6.922;2022-10-10T01:50:27;12.50;89.00
53254;DHT22;39148;53.332;6.922;2022-10-10T02:01:32;12.40;89.00
53254;DHT22;39148;53.332;6.922;2022-10-10T02:06:54;12.40;89.00
53254;DHT22;39148;53.332;6.922;2022-10-10T02:09:28;12.40;87.90
53254;DHT22;39148;53.332;6.922;2022-10-10T02:11:57;12.40;89.00
53254;DHT22;39148;53.332;6.922;2022-10-10T02:14:28;12.40;88.90
53254;DHT22;39148;53.332;6.922;2022-10-10T02:16:56;12.40;88.90
53254;DHT22;39148;53.332;6.922;2022-10-10T02:19:23;12.40;88.90
53254;DHT22;39148;53.332;6.922;2022-10-10T02:21:50;12.20;88.90
53254;DHT22;39148;53.332;6.922;2022-10-10T02:24:19;12.50;89.00
53254;DHT22;39148;53.332;6.922;2022-10-10T02:26:49;12.30;87.90
53254;DHT22;39148;53.332;6.922;2022-10-10T02:29:19;12.30;89.20
53254;DHT22;39148;53.332;6.922;2022-10-10T02:32:01;12.30;89.00
53254;DHT22;39148;53.332;6.922;2022-10-10T02:34:32;12.10;87.20
53254;DHT22;39148;53.332;6.922;2022-10-10T02:36:59;12.40;87.90
53254;DHT22;39148;53.332;6.922;2022-10-10T02:39:29;12.30;88.10
53254;DHT22;39148;53.332;6.922;2022-10-10T02:41:55;12.20;88.90
53254;DHT22;39148;53.332;6.922;2022-10-10T02:44:21;12.10;89.10
53254;DHT22;39148;53.332;6.922;2022-10-10T02:46:47;12.20;88.90
53254;DHT22;39148;53.332;6.922;2022-10-10T02:49:13;12.20;89.00
53254;DHT22;39148;53.332;6.922;2022-10-10T02:51:39;12.10;88.90
53254;DHT22;39148;53.332;6.922;2022-10-10T02:54:05;12.20;88.90
53254;DHT22;39148;53.332;6.922;2022-10-10T02:56:31;12.20;89.00
53254;DHT22;39148;53.332;6.922;2022-10-10T02:58:57;12.60;87.80
53254;DHT22;39148;53.332;6.922;2022-10-10T03:01:23;12.20;89.00
53254;DHT22;39148;53.332;6.922;2022-10-10T03:03:49;12.20;87.70
53254;DHT22;39148;53.332;6.922;2022-10-10T03:06:14;12.10;89.10
53254;DHT22;39148;53.332;6.922;2022-10-10T03:08:40;12.10;89.20
53254;DHT22;39148;53.332;6.922;2022-10-10T03:11:06;12.20;89.00
53254;DHT22;39148;53.332;6.922;2022-10-10T03:13:32;12.10;89.10
53254;DHT22;39148;53.332;6.922;2022-10-10T03:15:57;12.10;88.90
53254;DHT22;39148;53.332;6.922;2022-10-10T03:18:23;12.00;87.70
53254;DHT22;39148;53.332;6.922;2022-10-10T03:20:50;12.10;89.00
53254;DHT22;39148;53.332;6.922;2022-10-10T03:23:17;13.20;88.40
53254;DHT22;39148;53.332;6.922;2022-10-10T03:25:43;12.20;89.00
53254;DHT22;39148;53.332;6.922;2022-10-10T03:28:10;12.10;88.90
53254;DHT22;39148;53.332;6.922;2022-10-10T03:30:36;12.00;89.00
53254;DHT22;39148;53.332;6.922;2022-10-10T03:33:02;12.00;89.20
53254;DHT22;39148;53.332;6.922;2022-10-10T03:35:28;12.10;89.10
53254;DHT22;39148;53.332;6.922;2022-10-10T03:37:54;12.20;89.10
53254;DHT22;39148;53.332;6.922;2022-10-10T03:40:20;12.10;89.10
53254;DHT22;39148;53.332;6.922;2022-10-10T03:45:12;12.00;89.00
53254;DHT22;39148;53.332;6.922;2022-10-10T03:47:37;11.90;89.00
53254;DHT22;39148;53.332;6.922;2022-10-10T03:50:04;12.70;88.10
53254;DHT22;39148;53.332;6.922;2022-10-10T03:52:29;12.00;89.00
53254;DHT22;39148;53.332;6.922;2022-10-10T03:54:55;11.90;88.90
53254;DHT22;39148;53.332;6.922;2022-10-10T03:57:21;11.80;88.90
53254;DHT22;39148;53.332;6.922;2022-10-10T03:59:46;12.50;88.00
53254;DHT22;39148;53.332;6.922;2022-10-10T04:02:12;11.90;88.90
53254;DHT22;39148;53.332;6.922;2022-10-10T04:04:38;12.00;87.70
53254;DHT22;39148;53.332;6.922;2022-10-10T04:07:03;11.90;88.90
53254;DHT22;39148;53.332;6.922;2022-10-10T04:09:29;12.00;89.10
53254;DHT22;39148;53.332;6.922;2022-10-10T04:11:55;11.90;89.00
53254;DHT22;39148;53.332;6.922;2022-10-10T04:14:21;11.90;87.70
53254;DHT22;39148;53.332;6.922;2022-10-10T04:16:47;11.80;89.00
53254;DHT22;39148;53.332;6.922;2022-10-10T04:19:13;11.80;89.10
53254;DHT22;39148;53.332;6.922;2022-10-10T04:21:39;11.90;89.10
53254;DHT22;39148;53.332;6.922;2022-10-10T04:24:05;11.90;89.00
53254;DHT22;39148;53.332;6.922;2022-10-10T04:26:30;11.90;89.00
53254;DHT22;39148;53.332;6.922;2022-10-10T04:28:56;11.90;87.80
53254;DHT22;39148;53.332;6.922;2022-10-10T04:31:22;11.70;87.70
53254;DHT22;39148;53.332;6.922;2022-10-10T04:33:48;11.80;88.90
53254;DHT22;39148;53.332;6.922;2022-10-10T04:36:14;11.80;89.20
53254;DHT22;39148;53.332;6.922;2022-10-10T04:38:40;11.80;89.00
53254;DHT22;39148;53.332;6.922;2022-10-10T04:41:06;11.90;89.00
53254;DHT22;39148;53.332;6.922;2022-10-10T04:43:31;11.80;89.00
53254;DHT22;39148;53.332;6.922;2022-10-10T04:45:57;11.80;87.70
53254;DHT22;39148;53.332;6.922;2022-10-10T04:48:23;11.70;88.90
53254;DHT22;39148;53.332;6.922;2022-10-10T04:50:57;11.60;87.60
53254;DHT22;39148;53.332;6.922;2022-10-10T04:53:24;11.70;88.90
53254;DHT22;39148;53.332;6.922;2022-10-10T04:55:50;11.70;88.90
53254;DHT22;39148;53.332;6.922;2022-10-10T04:58:17;11.80;88.20
53254;DHT22;39148;53.332;6.922;2022-10-10T05:00:43;11.60;88.90
53254;DHT22;39148;53.332;6.922;2022-10-10T05:03:08;11.80;89.10
53254;DHT22;39148;53.332;6.922;2022-10-10T05:05:37;12.40;88.10
53254;DHT22;39148;53.332;6.922;2022-10-10T05:08:03;13.20;88.60
53254;DHT22;39148;53.332;6.922;2022-10-10T05:10:29;11.60;88.90
53254;DHT22;39148;53.332;6.922;2022-10-10T05:12:55;11.50;88.90
53254;DHT22;39148;53.332;6.922;2022-10-10T05:15:20;11.60;87.70
53254;DHT22;39148;53.332;6.922;2022-10-10T05:17:47;11.50;88.70
53254;DHT22;39148;53.332;6.922;2022-10-10T05:20:13;11.60;89.00
53254;DHT22;39148;53.332;6.922;2022-10-10T05:22:38;11.70;89.00
53254;DHT22;39148;53.332;6.922;2022-10-10T05:25:04;11.60;89.00
53254;DHT22;39148;53.332;6.922;2022-10-10T05:27:30;11.60;88.90
53254;DHT22;39148;53.332;6.922;2022-10-10T05:29:56;11.50;88.90
53254;DHT22;39148;53.332;6.922;2022-10-10T05:32:22;11.60;87.70
53254;DHT22;39148;53.332;6.922;2022-10-10T05:34:48;11.60;89.00
53254;DHT22;39148;53.332;6.922;2022-10-10T05:37:14;11.70;89.00
53254;DHT22;39148;53.332;6.922;2022-10-10T05:39:39;11.60;89.10
53254;DHT22;39148;53.332;6.922;2022-10-10T05:42:05;11.60;89.00
53254;DHT22;39148;53.332;6.922;2022-10-10T05:44:31;11.50;88.90
53254;DHT22;39148;53.332;6.922;2022-10-10T05:46:58;11.40;88.90
53254;DHT22;39148;53.332;6.922;2022-10-10T05:49:24;11.50;89.00
53254;DHT22;39148;53.332;6.922;2022-10-10T05:51:49;11.40;89.00
53254;DHT22;39148;53.332;6.922;2022-10-10T05:56:41;11.50;89.10
53254;DHT22;39148;53.332;6.922;2022-10-10T05:59:07;11.40;89.00
53254;DHT22;39148;53.332;6.922;2022-10-10T06:03:59;11.30;89.00
53254;DHT22;39148;53.332;6.922;2022-10-10T06:06:25;11.30;89.00
53254;DHT22;39148;53.332;6.922;2022-10-10T06:08:51;11.50;89.00
53254;DHT22;39148;53.332;6.922;2022-10-10T06:11:17;11.50;89.20
53254;DHT22;39148;53.332;6.922;2022-10-10T06:13:45;11.50;89.10
53254;DHT22;39148;53.332;6.922;2022-10-10T06:16:14;11.50;89.20
53254;DHT22;39148;53.332;6.922;2022-10-10T06:21:07;11.50;89.20
53254;DHT22;39148;53.332;6.922;2022-10-10T06:23:34;11.40;89.00
53254;DHT22;39148;53.332;6.922;2022-10-10T06:26:00;11.40;89.20
53254;DHT22;39148;53.332;6.922;2022-10-10T06:30:52;11.40;89.20
53254;DHT22;39148;53.332;6.922;2022-10-10T06:33:18;11.40;89.20
53254;DHT22;39148;53.332;6.922;2022-10-10T06:35:46;11.40;89.10
53254;DHT22;39148;53.332;6.922;2022-10-10T06:38:12;11.40;89.10
53254;DHT22;39148;53.332;6.922;2022-10-10T06:40:39;11.20;89.00
53254;DHT22;39148;53.332;6.922;2022-10-10T06:43:07;11.40;89.20
53254;DHT22;39148;53.332;6.922;2022-10-10T06:45:37;11.30;89.20
53254;DHT22;39148;53.332;6.922;2022-10-10T06:48:03;11.30;89.00
53254;DHT22;39148;53.332;6.922;2022-10-10T06:50:28;11.40;89.20
53254;DHT22;39148;53.332;6.922;2022-10-10T06:52:54;11.20;89.10
53254;DHT22;39148;53.332;6.922;2022-10-10T06:55:20;11.30;87.90
53254;DHT22;39148;53.332;6.922;2022-10-10T06:57:46;11.30;87.20
53254;DHT22;39148;53.332;6.922;2022-10-10T07:00:13;11.30;89.20
53254;DHT22;39148;53.332;6.922;2022-10-10T07:02:38;11.30;89.20
53254;DHT22;39148;53.332;6.922;2022-10-10T07:05:16;11.30;89.20
53254;DHT22;39148;53.332;6.922;2022-10-10T07:07:43;11.20;89.10
53254;DHT22;39148;53.332;6.922;2022-10-10T07:10:14;11.10;89.00
53254;DHT22;39148;53.332;6.922;2022-10-10T07:12:39;11.10;88.10
53254;DHT22;39148;53.332;6.922;2022-10-10T07:15:06;11.30;89.20
53254;DHT22;39148;53.332;6.922;2022-10-10T07:17:31;11.20;89.20
53254;DHT22;39148;53.332;6.922;2022-10-10T07:19:57;11.30;89.50
53254;DHT22;39148;53.332;6.922;2022-10-10T07:22:23;11.30;89.20
53254;DHT22;39148;53.332;6.922;2022-10-10T07:24:48;11.30;89.30
53254;DHT22;39148;53.332;6.922;2022-10-10T07:27:14;11.20;89.20
53254;DHT22;39148;53.332;6.922;2022-10-10T07:29:40;11.30;89.40
53254;DHT22;39148;53.332;6.922;2022-10-10T07:32:06;11.10;89.30
53254;DHT22;39148;53.332;6.922;2022-10-10T07:34:32;11.20;89.20
53254;DHT22;39148;53.332;6.922;2022-10-10T07:36:59;11.40;89.40
53254;DHT22;39148;53.332;6.922;2022-10-10T07:39:25;11.20;89.50
53254;DHT22;39148;53.332;6.922;2022-10-10T07:41:51;11.00;89.20
53254;DHT22;39148;53.332;6.922;2022-10-10T07:44:18;11.10;89.30
53254;DHT22;39148;53.332;6.922;2022-10-10T07:46:44;11.20;89.30
53254;DHT22;39148;53.332;6.922;2022-10-10T07:49:10;11.20;89.50
53254;DHT22;39148;53.332;6.922;2022-10-10T07:51:36;11.10;89.30
53254;DHT22;39148;53.332;6.922;2022-10-10T07:54:02;11.10;89.30
53254;DHT22;39148;53.332;6.922;2022-10-10T07:56:28;11.10;89.40
53254;DHT22;39148;53.332;6.922;2022-10-10T07:58:54;11.10;88.00
53254;DHT22;39148;53.332;6.922;2022-10-10T08:01:19;11.10;89.40
53254;DHT22;39148;53.332;6.922;2022-10-10T08:03:45;11.10;88.10
53254;DHT22;39148;53.332;6.922;2022-10-10T08:06:14;11.20;89.40
53254;DHT22;39148;53.332;6.922;2022-10-10T08:08:40;11.20;88.20
53254;DHT22;39148;53.332;6.922;2022-10-10T08:11:07;11.10;89.50
53254;DHT22;39148;53.332;6.922;2022-10-10T08:13:34;11.10;89.40
53254;DHT22;39148;53.332;6.922;2022-10-10T08:16:01;11.20;89.40
53254;DHT22;39148;53.332;6.922;2022-10-10T08:18:27;11.00;89.30
53254;DHT22;39148;53.332;6.922;2022-10-10T08:21:00;11.10;89.40
53254;DHT22;39148;53.332;6.922;2022-10-10T08:23:26;11.10;88.50
53254;DHT22;39148;53.332;6.922;2022-10-10T08:25:52;11.30;89.50
53254;DHT22;39148;53.332;6.922;2022-10-10T08:28:18;11.20;89.40
53254;DHT22;39148;53.332;6.922;2022-10-10T08:30:43;11.10;89.40
53254;DHT22;39148;53.332;6.922;2022-10-10T08:33:09;11.10;89.50
53254;DHT22;39148;53.332;6.922;2022-10-10T08:35:39;11.20;89.50
53254;DHT22;39148;53.332;6.922;2022-10-10T08:38:05;11.20;89.50
53254;DHT22;39148;53.332;6.922;2022-10-10T08:40:31;11.20;89.50
53254;DHT22;39148;53.332;6.922;2022-10-10T08:43:03;11.10;89.60
53254;DHT22;39148;53.332;6.922;2022-10-10T08:45:32;11.10;89.50
53254;DHT22;39148;53.332;6.922;2022-10-10T08:50:51;11.30;89.60
53254;DHT22;39148;53.332;6.922;2022-10-10T08:55:46;11.20;89.70
53254;DHT22;39148;53.332;6.922;2022-10-10T09:00:46;11.30;89.70
53254;DHT22;39148;53.332;6.922;2022-10-10T09:03:43;11.30;89.80
53254;DHT22;39148;53.332;6.922;2022-10-10T09:11:29;11.30;89.80
53254;DHT22;39148;53.332;6.922;2022-10-10T09:17:00;11.30;89.70
53254;DHT22;39148;53.332;6.922;2022-10-10T09:19:46;11.30;90.00
53254;DHT22;39148;53.332;6.922;2022-10-10T09:22:19;11.30;89.80
53254;DHT22;39148;53.332;6.922;2022-10-10T09:24:54;11.30;89.90
53254;DHT22;39148;53.332;6.922;2022-10-10T09:27:26;11.20;89.80
53254;DHT22;39148;53.332;6.922;2022-10-10T09:30:06;11.30;88.20
53254;DHT22;39148;53.332;6.922;2022-10-10T09:32:49;11.50;90.00
53254;DHT22;39148;53.332;6.922;2022-10-10T09:35:25;11.20;89.00
53254;DHT22;39148;53.332;6.922;2022-10-10T09:40:52;11.40;87.90
53254;DHT22;39148;53.332;6.922;2022-10-10T09:43:18;11.40;88.90
53254;DHT22;39148;53.332;6.922;2022-10-10T09:45:51;11.40;89.20
53254;DHT22;39148;53.332;6.922;2022-10-10T09:48:19;12.40;89.40
53254;DHT22;39148;53.332;6.922;2022-10-10T09:50:46;11.50;90.00
53254;DHT22;39148;53.332;6.922;2022-10-10T09:53:13;11.50;90.10
53254;DHT22;39148;53.332;6.922;2022-10-10T09:55:40;11.60;89.00
53254;DHT22;39148;53.332;6.922;2022-10-10T09:58:24;12.30;89.20
53254;DHT22;39148;53.332;6.922;2022-10-10T10:00:50;11.40;90.10
53254;DHT22;39148;53.332;6.922;2022-10-10T10:03:20;11.40;89.90
53254;DHT22;39148;53.332;6.922;2022-10-10T10:05:59;11.60;90.00
53254;DHT22;39148;53.332;6.922;2022-10-10T10:08:31;11.60;90.00
53254;DHT22;39148;53.332;6.922;2022-10-10T10:10:57;11.50;89.40
53254;DHT22;39148;53.332;6.922;2022-10-10T10:13:27;11.70;90.00
53254;DHT22;39148;53.332;6.922;2022-10-10T10:16:14;13.10;89.70
53254;DHT22;39148;53.332;6.922;2022-10-10T10:18:45;11.60;90.00
53254;DHT22;39148;53.332;6.922;2022-10-10T10:21:20;11.60;90.10
53254;DHT22;39148;53.332;6.922;2022-10-10T10:24:00;11.60;89.10
53254;DHT22;39148;53.332;6.922;2022-10-10T10:26:43;11.60;90.00
53254;DHT22;39148;53.332;6.922;2022-10-10T10:32:12;11.70;90.00
53254;DHT22;39148;53.332;6.922;2022-10-10T10:45:47;12.00;89.90
53254;DHT22;39148;53.332;6.922;2022-10-10T10:48:20;11.90;87.60
53254;DHT22;39148;53.332;6.922;2022-10-10T10:50:55;12.00;88.80
53254;DHT22;39148;53.332;6.922;2022-10-10T10:56:32;11.90;88.70
53254;DHT22;39148;53.332;6.922;2022-10-10T11:02:23;12.00;87.90
53254;DHT22;39148;53.332;6.922;2022-10-10T11:07:23;12.00;89.70
53254;DHT22;39148;53.332;6.922;2022-10-10T11:12:36;12.30;89.80
53254;DHT22;39148;53.332;6.922;2022-10-10T11:20:45;12.20;89.90
53254;DHT22;39148;53.332;6.922;2022-10-10T11:26:04;12.20;88.60
53254;DHT22;39148;53.332;6.922;2022-10-10T11:28:40;12.20;89.10
53254;DHT22;39148;53.332;6.922;2022-10-10T11:31:30;12.30;89.00
53254;DHT22;39148;53.332;6.922;2022-10-10T11:34:21;12.30;87.80
53254;DHT22;39148;53.332;6.922;2022-10-10T11:36:54;12.40;87.90
53254;DHT22;39148;53.332;6.922;2022-10-10T11:39:38;12.40;88.80
53254;DHT22;39148;53.332;6.922;2022-10-10T11:42:30;12.60;87.80
53254;DHT22;39148;53.332;6.922;2022-10-10T11:44:58;12.50;89.80
53254;DHT22;39148;53.332;6.922;2022-10-10T11:47:41;14.00;89.50
53254;DHT22;39148;53.332;6.922;2022-10-10T11:50:18;12.50;88.90
53254;DHT22;39148;53.332;6.922;2022-10-10T11:52:49;12.60;89.90
53254;DHT22;39148;53.332;6.922;2022-10-10T12:00:47;12.70;87.40
53254;DHT22;39148;53.332;6.922;2022-10-10T12:03:13;12.70;89.70
53254;DHT22;39148;53.332;6.922;2022-10-10T12:05:42;12.70;88.30
53254;DHT22;39148;53.332;6.922;2022-10-10T12:08:26;12.90;88.50
53254;DHT22;39148;53.332;6.922;2022-10-10T12:10:56;12.80;88.80
53254;DHT22;39148;53.332;6.922;2022-10-10T12:13:43;12.70;87.20
53254;DHT22;39148;53.332;6.922;2022-10-10T12:16:18;12.90;89.80
53254;DHT22;39148;53.332;6.922;2022-10-10T12:18:59;12.90;89.80
53254;DHT22;39148;53.332;6.922;2022-10-10T12:21:27;12.80;89.80
53254;DHT22;39148;53.332;6.922;2022-10-10T12:24:07;13.00;88.50
53254;DHT22;39148;53.332;6.922;2022-10-10T12:40:18;13.10;87.00
53254;DHT22;39148;53.332;6.922;2022-10-10T12:47:58;13.20;88.40
53254;DHT22;39148;53.332;6.922;2022-10-10T12:52:52;13.30;89.30
53254;DHT22;39148;53.332;6.922;2022-10-10T12:55:22;13.20;88.10
53254;DHT22;39148;53.332;6.922;2022-10-10T12:57:52;13.30;88.30
53254;DHT22;39148;53.332;6.922;2022-10-10T13:00:24;13.90;88.50
53254;DHT22;39148;53.332;6.922;2022-10-10T13:02:56;13.20;88.10
53254;DHT22;39148;53.332;6.922;2022-10-10T13:05:27;13.40;89.50
53254;DHT22;39148;53.332;6.922;2022-10-10T13:07:55;13.30;88.30
53254;DHT22;39148;53.332;6.922;2022-10-10T13:10:26;13.20;89.20
53254;DHT22;39148;53.332;6.922;2022-10-10T13:13:05;13.30;88.10
53254;DHT22;39148;53.332;6.922;2022-10-10T13:15:33;13.40;87.20
53254;DHT22;39148;53.332;6.922;2022-10-10T13:17:59;13.30;88.20
53254;DHT22;39148;53.332;6.922;2022-10-10T13:20:26;13.40;88.00
53254;DHT22;39148;53.332;6.922;2022-10-10T13:22:52;13.50;88.20
53254;DHT22;39148;53.332;6.922;2022-10-10T13:25:18;13.40;88.10
53254;DHT22;39148;53.332;6.922;2022-10-10T13:27:44;13.40;88.00
53254;DHT22;39148;53.332;6.922;2022-10-10T13:30:21;13.50;88.10
53254;DHT22;39148;53.332;6.922;2022-10-10T13:32:47;13.40;88.30
53254;DHT22;39148;53.332;6.922;2022-10-10T13:35:20;13.50;88.20
53254;DHT22;39148;53.332;6.922;2022-10-10T13:37:55;13.40;88.30
53254;DHT22;39148;53.332;6.922;2022-10-10T13:40:21;14.00;88.70
53254;DHT22;39148;53.332;6.922;2022-10-10T13:42:48;13.50;88.20
53254;DHT22;39148;53.332;6.922;2022-10-10T13:48:16;13.50;87.40
53254;DHT22;39148;53.332;6.922;2022-10-10T13:58:37;13.60;88.40
53254;DHT22;39148;53.332;6.922;2022-10-10T14:01:03;13.50;88.40
53254;DHT22;39148;53.332;6.922;2022-10-10T14:03:30;13.50;88.20
53254;DHT22;39148;53.332;6.922;2022-10-10T14:05:57;13.70;88.50
53254;DHT22;39148;53.332;6.922;2022-10-10T14:08:26;14.50;88.90
53254;DHT22;39148;53.332;6.922;2022-10-10T14:11:01;13.60;89.80
53254;DHT22;39148;53.332;6.922;2022-10-10T14:13:29;13.50;88.90
53254;DHT22;39148;53.332;6.922;2022-10-10T14:16:10;13.50;88.80
53254;DHT22;39148;53.332;6.922;2022-10-10T14:18:35;13.60;89.10
53254;DHT22;39148;53.332;6.922;2022-10-10T14:21:01;13.60;88.70
53254;DHT22;39148;53.332;6.922;2022-10-10T14:23:27;13.60;88.80
53254;DHT22;39148;53.332;6.922;2022-10-10T14:25:52;13.60;90.00
53254;DHT22;39148;53.332;6.922;2022-10-10T14:28:22;13.50;88.70
53254;DHT22;39148;53.332;6.922;2022-10-10T14:30:49;13.60;89.00
53254;DHT22;39148;53.332;6.922;2022-10-10T14:33:16;13.70;88.80
53254;DHT22;39148;53.332;6.922;2022-10-10T14:35:43;13.80;89.00
53254;DHT22;39148;53.332;6.922;2022-10-10T14:38:10;13.50;88.80
53254;DHT22;39148;53.332;6.922;2022-10-10T14:40:36;13.70;89.00
53254;DHT22;39148;53.332;6.922;2022-10-10T14:43:02;13.60;88.70
53254;DHT22;39148;53.332;6.922;2022-10-10T14:45:28;13.60;90.00
53254;DHT22;39148;53.332;6.922;2022-10-10T14:47:54;13.60;88.70
53254;DHT22;39148;53.332;6.922;2022-10-10T14:50:22;13.60;88.70
53254;DHT22;39148;53.332;6.922;2022-10-10T14:52:49;13.70;88.90
53254;DHT22;39148;53.332;6.922;2022-10-10T14:55:15;13.60;90.00
53254;DHT22;39148;53.332;6.922;2022-10-10T14:57:41;14.70;89.20
53254;DHT22;39148;53.332;6.922;2022-10-10T15:00:19;13.60;88.60
53254;DHT22;39148;53.332;6.922;2022-10-10T15:02:45;13.60;90.00
53254;DHT22;39148;53.332;6.922;2022-10-10T15:05:12;13.70;88.60
53254;DHT22;39148;53.332;6.922;2022-10-10T15:07:38;13.70;88.80
53254;DHT22;39148;53.332;6.922;2022-10-10T15:10:04;13.70;88.70
53254;DHT22;39148;53.332;6.922;2022-10-10T15:12:31;13.80;89.90
53254;DHT22;39148;53.332;6.922;2022-10-10T15:14:57;13.70;88.70
53254;DHT22;39148;53.332;6.922;2022-10-10T15:17:23;13.70;88.60
53254;DHT22;39148;53.332;6.922;2022-10-10T15:19:50;13.70;90.00
53254;DHT22;39148;53.332;6.922;2022-10-10T15:22:16;13.70;89.10
53254;DHT22;39148;53.332;6.922;2022-10-10T15:24:42;13.70;89.80
53254;DHT22;39148;53.332;6.922;2022-10-10T15:27:08;13.70;88.50
53254;DHT22;39148;53.332;6.922;2022-10-10T15:29:33;13.70;88.50
53254;DHT22;39148;53.332;6.922;2022-10-10T15:32:00;13.60;88.30
53254;DHT22;39148;53.332;6.922;2022-10-10T15:34:25;13.70;88.50
53254;DHT22;39148;53.332;6.922;2022-10-10T15:36:51;14.40;88.80
53254;DHT22;39148;53.332;6.922;2022-10-10T15:39:17;13.60;88.30
53254;DHT22;39148;53.332;6.922;2022-10-10T15:41:42;13.70;88.30
53254;DHT22;39148;53.332;6.922;2022-10-10T15:44:16;14.10;88.50
53254;DHT22;39148;53.332;6.922;2022-10-10T15:46:43;13.60;88.70
53254;DHT22;39148;53.332;6.922;2022-10-10T15:49:10;13.70;88.60
53254;DHT22;39148;53.332;6.922;2022-10-10T15:51:36;13.70;88.60
53254;DHT22;39148;53.332;6.922;2022-10-10T15:54:02;13.70;88.60
53254;DHT22;39148;53.332;6.922;2022-10-10T15:56:28;13.60;88.40
53254;DHT22;39148;53.332;6.922;2022-10-10T15:58:59;13.80;88.60
53254;DHT22;39148;53.332;6.922;2022-10-10T16:01:26;13.70;88.70
53254;DHT22;39148;53.332;6.922;2022-10-10T16:03:53;13.80;88.70
53254;DHT22;39148;53.332;6.922;2022-10-10T16:06:20;14.00;88.60
53254;DHT22;39148;53.332;6.922;2022-10-10T16:08:46;13.70;88.60
53254;DHT22;39148;53.332;6.922;2022-10-10T16:11:17;14.90;88.30
53254;DHT22;39148;53.332;6.922;2022-10-10T16:13:46;13.70;88.60
53254;DHT22;39148;53.332;6.922;2022-10-10T16:16:12;13.70;88.60
53254;DHT22;39148;53.332;6.922;2022-10-10T16:18:39;14.10;88.60
53254;DHT22;39148;53.332;6.922;2022-10-10T16:21:07;13.60;89.70
53254;DHT22;39148;53.332;6.922;2022-10-10T16:23:33;13.70;89.60
53254;DHT22;39148;53.332;6.922;2022-10-10T16:26:01;13.70;88.30
53254;DHT22;39148;53.332;6.922;2022-10-10T16:28:26;13.60;88.40
53254;DHT22;39148;53.332;6.922;2022-10-10T16:30:52;13.60;88.30
53254;DHT22;39148;53.332;6.922;2022-10-10T16:33:18;13.70;88.20
53254;DHT22;39148;53.332;6.922;2022-10-10T16:35:43;13.60;89.40
53254;DHT22;39148;53.332;6.922;2022-10-10T16:38:09;13.50;88.00
53254;DHT22;39148;53.332;6.922;2022-10-10T16:40:35;13.60;88.10
53254;DHT22;39148;53.332;6.922;2022-10-10T16:43:02;13.70;88.10
53254;DHT22;39148;53.332;6.922;2022-10-10T16:45:27;13.60;88.20
53254;DHT22;39148;53.332;6.922;2022-10-10T16:47:53;13.70;89.40
53254;DHT22;39148;53.332;6.922;2022-10-10T16:50:19;13.70;88.10
53254;DHT22;39148;53.332;6.922;2022-10-10T16:52:44;13.60;87.90
53254;DHT22;39148;53.332;6.922;2022-10-10T16:55:10;14.60;88.50
53254;DHT22;39148;53.332;6.922;2022-10-10T16:57:36;13.60;89.30
53254;DHT22;39148;53.332;6.922;2022-10-10T17:00:04;13.50;88.00
53254;DHT22;39148;53.332;6.922;2022-10-10T17:02:30;13.60;87.80
53254;DHT22;39148;53.332;6.922;2022-10-10T17:04:56;15.10;88.80
53254;DHT22;39148;53.332;6.922;2022-10-10T17:07:22;13.60;88.00
53254;DHT22;39148;53.332;6.922;2022-10-10T17:09:48;13.50;88.10
53254;DHT22;39148;53.332;6.922;2022-10-10T17:12:14;13.50;87.90
53254;DHT22;39148;53.332;6.922;2022-10-10T17:14:40;13.60;88.10
53254;DHT22;39148;53.332;6.922;2022-10-10T17:17:06;13.50;89.40
53254;DHT22;39148;53.332;6.922;2022-10-10T17:19:32;13.50;88.00
53254;DHT22;39148;53.332;6.922;2022-10-10T17:21:58;13.50;88.00
53254;DHT22;39148;53.332;6.922;2022-10-10T17:24:24;13.40;89.30
53254;DHT22;39148;53.332;6.922;2022-10-10T17:26:50;13.50;88.10
53254;DHT22;39148;53.332;6.922;2022-10-10T17:29:16;13.50;88.10
53254;DHT22;39148;53.332;6.922;2022-10-10T17:31:41;13.50;88.10
53254;DHT22;39148;53.332;6.922;2022-10-10T17:34:07;13.50;89.40
53254;DHT22;39148;53.332;6.922;2022-10-10T17:36:33;13.60;88.20
53254;DHT22;39148;53.332;6.922;2022-10-10T17:38:59;13.40;88.10
53254;DHT22;39148;53.332;6.922;2022-10-10T17:41:25;13.50;88.20
53254;DHT22;39148;53.332;6.922;2022-10-10T17:43:51;13.40;89.50
53254;DHT22;39148;53.332;6.922;2022-10-10T17:46:23;13.20;88.20
53254;DHT22;39148;53.332;6.922;2022-10-10T17:48:49;14.20;88.90